Time;durP1;ratioP1;P1;durP2;ratioP2;P2;SDS_P1;SDS_P2;PMS_P1;PMS_P2;Temp;Humidity;BMP_temperature;BMP_pressure;BME280_temperature;BME280_humidity;BME280_pressure;Samples;Min_cycle;Max_cycle;Signal;HPM_P1;HPM_P2
2022/02/03 00:33:39;;;;;;;27.38;5.22;;;;;;;;;;3814291;28;20164;-73
2022/02/03 00:49:32;;;;;;;23.40;4.07;;;;;;;;;;5018496;28;20128;-72
2022/02/03 00:52:00;;;;;;;29.92;5.25;;;;;;;;;;5022484;28;20034;-73
2022/02/03 00:54:30;;;;;;;21.88;4.35;;;;;;;;;;5013052;28;20013;-73
2022/02/03 00:57:02;;;;;;;19.45;4.13;;;;;;;;;;5026389;28;20396;-73
2022/02/03 00:59:38;;;;;;;26.17;5.00;;;;;;;;;;5017522;28;20048;-73
2022/02/03 01:02:06;;;;;;;21.90;4.50;;;;;;;;;;5017159;28;20034;-73
2022/02/03 01:04:33;;;;;;;22.70;4.43;;;;;;;;;;5028462;28;20397;-72
2022/02/03 01:07:01;;;;;;;25.30;4.65;;;;;;;;;;5017597;28;20055;-72
2022/02/03 01:09:29;;;;;;;20.15;3.60;;;;;;;;;;5011143;28;20108;-72
2022/02/03 01:12:10;;;;;;;29.13;4.50;;;;;;;;;;5034014;28;20129;-73
2022/02/03 01:15:12;;;;;;;22.60;3.55;;;;;;;;;;5013187;28;20036;-73
2022/02/03 01:34:11;;;;;;;15.40;3.38;;;;;;;;;;5024688;28;20107;-74
2022/02/03 01:37:09;;;;;;;15.32;2.97;;;;;;;;;;5012376;28;20021;-73
2022/02/03 01:45:39;;;;;;;11.05;2.35;;;;;;;;;;5018105;28;20564;-72
2022/02/03 01:49:09;;;;;;;10.70;2.55;;;;;;;;;;5025286;28;20026;-72
2022/02/03 01:53:43;;;;;;;9.98;2.33;;;;;;;;;;5031642;28;20053;-73
2022/02/03 01:56:11;;;;;;;21.60;3.17;;;;;;;;;;5021775;28;20532;-73
2022/02/03 01:58:46;;;;;;;15.73;2.80;;;;;;;;;;5013310;28;20029;-73
2022/02/03 02:01:26;;;;;;;15.57;3.03;;;;;;;;;;5045091;28;20037;-74
2022/02/03 02:03:58;;;;;;;13.48;3.30;;;;;;;;;;5022008;28;20587;-73
2022/02/03 02:06:24;;;;;;;;;;;;;;;;;;5023905;28;20088;-73
2022/02/03 02:09:01;;;;;;;16.05;2.70;;;;;;;;;;5028541;28;19920;-73
2022/02/03 02:12:05;;;;;;;15.98;2.53;;;;;;;;;;5007832;28;20026;-73
2022/02/03 02:39:23;;;;;;;19.73;2.50;;;;;;;;;;5011482;28;20068;-73
2022/02/03 02:45:00;;;;;;;5.10;2.58;;;;;;;;;;5016425;28;20045;-73
2022/02/03 02:47:28;;;;;;;8.82;2.25;;;;;;;;;;5015742;28;20033;-72
2022/02/03 02:50:02;;;;;;;9.82;2.35;;;;;;;;;;5024065;28;20022;-74
2022/02/03 02:52:38;;;;;;;10.55;2.00;;;;;;;;;;5013656;28;20391;-73
2022/02/03 03:35:55;;;;;;;8.88;2.40;;;;;;;;;;5022447;28;20397;-73
2022/02/03 03:38:23;;;;;;;11.75;2.25;;;;;;;;;;5024050;28;20048;-72
2022/02/03 03:40:51;;;;;;;12.75;2.75;;;;;;;;;;5025472;28;20040;-73
2022/02/03 03:43:23;;;;;;;6.43;2.10;;;;;;;;;;5027192;28;20017;-73
2022/02/03 03:45:52;;;;;;;12.32;2.80;;;;;;;;;;5025025;28;20127;-73
2022/02/03 03:48:19;;;;;;;12.57;2.65;;;;;;;;;;5017203;28;20444;-72
2022/02/03 03:50:52;;;;;;;12.52;2.78;;;;;;;;;;5009480;28;20066;-74
2022/02/03 03:53:27;;;;;;;8.90;2.28;;;;;;;;;;5031107;28;20476;-72
2022/02/03 03:56:25;;;;;;;12.30;2.15;;;;;;;;;;5015966;28;20037;-73
2022/02/03 03:59:07;;;;;;;15.52;2.50;;;;;;;;;;5013152;28;20049;-74
2022/02/03 04:38:49;;;;;;;10.85;2.63;;;;;;;;;;5018059;28;20043;-74
2022/02/03 04:55:46;;;;;;;14.35;3.10;;;;;;;;;;5004457;28;20037;-73
2022/02/03 05:12:52;;;;;;;16.80;3.15;;;;;;;;;;4980835;28;20099;-73
2022/02/03 05:15:41;;;;;;;16.70;3.42;;;;;;;;;;5011985;28;20034;-72
2022/02/03 05:44:26;;;;;;;8.65;2.10;;;;;;;;;;5009116;28;20040;-73
2022/02/03 05:55:15;;;;;;;12.30;2.83;;;;;;;;;;5012718;28;20397;-73
2022/02/03 06:05:55;;;;;;;5.18;2.05;;;;;;;;;;5013071;28;20458;-72
2022/02/03 06:08:47;;;;;;;12.75;2.13;;;;;;;;;;5007688;28;20025;-72
2022/02/03 06:14:17;;;;;;;11.48;2.70;;;;;;;;;;5013331;28;20041;-73
2022/02/03 06:22:38;;;;;;;8.80;2.38;;;;;;;;;;5012203;28;20061;-72
2022/02/03 06:27:43;;;;;;;8.18;2.10;;;;;;;;;;5010905;28;20033;-73
2022/02/03 06:30:11;;;;;;;4.45;1.42;;;;;;;;;;5009605;28;20099;-73
2022/02/03 06:32:38;;;;;;;8.27;2.20;;;;;;;;;;5006404;28;20025;-72
2022/02/03 06:35:04;;;;;;;9.65;1.95;;;;;;;;;;5013871;28;20049;-73
2022/02/03 06:37:32;;;;;;;6.03;2.60;;;;;;;;;;5015239;28;20025;-73
2022/02/03 06:39:58;;;;;;;5.38;1.75;;;;;;;;;;5020307;28;20029;-73
2022/02/03 06:42:25;;;;;;;10.70;2.35;;;;;;;;;;4993304;28;20178;-73
2022/02/03 06:44:56;;;;;;;11.68;3.60;;;;;;;;;;5032440;28;20052;-73
2022/02/03 06:55:41;;;;;;;9.38;3.20;;;;;;;;;;5011966;28;20523;-73
2022/02/03 07:01:02;;;;;;;9.45;2.50;;;;;;;;;;5024764;28;20029;-73
2022/02/03 07:03:32;;;;;;;;;;;;;;;;;;5008902;28;20040;-72
2022/02/03 07:05:58;;;;;;;8.20;2.40;;;;;;;;;;5014215;28;19917;-73
2022/02/03 07:08:25;;;;;;;6.97;2.85;;;;;;;;;;5003987;28;20034;-75
2022/02/03 07:10:54;;;;;;;10.50;2.35;;;;;;;;;;5024412;28;20047;-73
2022/02/03 07:13:20;;;;;;;9.63;3.05;;;;;;;;;;5015460;28;20061;-73
2022/02/03 07:15:46;;;;;;;7.30;2.10;;;;;;;;;;5016510;28;20041;-73
2022/02/03 07:18:12;;;;;;;4.00;1.70;;;;;;;;;;4991913;28;20393;-73
2022/02/03 07:20:38;;;;;;;8.27;2.20;;;;;;;;;;4991531;28;20061;-72
2022/02/03 07:23:06;;;;;;;6.05;2.35;;;;;;;;;;5009679;28;20091;-72
2022/02/03 07:25:32;;;;;;;6.22;2.25;;;;;;;;;;5008299;28;20044;-71
2022/02/03 07:28:01;;;;;;;5.20;1.88;;;;;;;;;;5010559;28;20474;-74
2022/02/03 07:30:27;;;;;;;16.73;2.92;;;;;;;;;;5017846;28;20037;-72
2022/02/03 07:32:56;;;;;;;10.25;2.60;;;;;;;;;;4992656;28;20385;-74
2022/02/03 07:35:23;;;;;;;3.85;1.95;;;;;;;;;;5015557;28;20036;-72
2022/02/03 07:37:50;;;;;;;6.70;2.22;;;;;;;;;;4990009;28;20074;-75
2022/02/03 07:40:17;;;;;;;11.65;2.08;;;;;;;;;;5009445;28;20026;-73
2022/02/03 07:42:49;;;;;;;7.85;2.53;;;;;;;;;;5019562;28;20034;-73
2022/02/03 07:45:16;;;;;;;;;;;;;;;;;;5015252;28;20025;-73
2022/02/03 07:47:43;;;;;;;9.55;2.00;;;;;;;;;;5018996;28;19913;-74
2022/02/03 07:50:09;;;;;;;6.53;1.98;;;;;;;;;;5012976;28;20037;-73
2022/02/03 07:52:36;;;;;;;6.40;1.70;;;;;;;;;;5015816;28;20028;-74
2022/02/03 07:55:02;;;;;;;9.43;2.30;;;;;;;;;;5019707;28;20025;-74
2022/02/03 07:57:28;;;;;;;6.63;2.03;;;;;;;;;;5008143;28;20037;-73
2022/02/03 07:59:55;;;;;;;7.05;1.90;;;;;;;;;;5018875;28;20029;-74
2022/02/03 08:02:21;;;;;;;10.18;2.00;;;;;;;;;;5012608;28;20036;-70
2022/02/03 08:04:49;;;;;;;5.43;2.35;;;;;;;;;;5017083;28;20108;-71
2022/02/03 08:07:18;;;;;;;6.57;2.35;;;;;;;;;;5011567;28;20057;-72
2022/02/03 08:12:18;;;;;;;9.70;2.42;;;;;;;;;;5020838;28;20100;-71
2022/02/03 08:14:48;;;;;;;13.27;2.80;;;;;;;;;;5008831;28;20021;-72
2022/02/03 08:17:20;;;;;;;8.43;2.60;;;;;;;;;;5007988;28;20025;-72
2022/02/03 08:22:19;;;;;;;10.93;2.67;;;;;;;;;;5008679;28;20030;-72
2022/02/03 08:24:50;;;;;;;15.52;3.13;;;;;;;;;;5020887;28;20025;-73
2022/02/03 08:32:28;;;;;;;7.45;2.75;;;;;;;;;;5007175;28;20034;-72
2022/02/03 08:37:21;;;;;;;9.05;3.08;;;;;;;;;;5011415;28;20030;-73
2022/02/03 08:39:53;;;;;;;15.20;2.70;;;;;;;;;;5021851;28;20718;-72
2022/02/03 08:42:20;;;;;;;11.27;2.53;;;;;;;;;;5018538;28;20036;-74
2022/02/03 08:44:47;;;;;;;11.43;3.35;;;;;;;;;;5007896;28;20037;-72
2022/02/03 08:47:13;;;;;;;9.63;2.95;;;;;;;;;;5004483;28;20116;-72
2022/02/03 08:49:45;;;;;;;7.10;2.42;;;;;;;;;;5025510;28;20104;-73
2022/02/03 08:52:17;;;;;;;5.22;2.03;;;;;;;;;;5009308;28;20111;-73
2022/02/03 08:54:53;;;;;;;8.38;2.15;;;;;;;;;;5009815;28;20025;-72
2022/02/03 08:57:32;;;;;;;7.35;2.80;;;;;;;;;;5018741;28;20512;-72
2022/02/03 09:38:35;;;;;;;6.00;1.75;;;;;;;;;;5011474;28;20480;-72
2022/02/03 09:42:03;;;;;;;5.00;1.80;;;;;;;;;;5005601;28;20045;-71
2022/02/03 09:54:54;;;;;;;7.28;1.80;;;;;;;;;;5016140;28;20022;-73
2022/02/03 10:00:23;;;;;;;5.20;1.85;;;;;;;;;;5014346;28;20125;-72
2022/02/03 10:03:00;;;;;;;5.22;1.77;;;;;;;;;;5016383;28;21029;-74
2022/02/03 10:08:00;;;;;;;12.63;1.83;;;;;;;;;;5027382;28;20030;-72
2022/02/03 10:10:28;;;;;;;5.78;1.90;;;;;;;;;;5017102;28;20029;-74
2022/02/03 10:12:54;;;;;;;9.63;2.20;;;;;;;;;;5030280;28;20021;-72
2022/02/03 10:15:21;;;;;;;3.15;1.33;;;;;;;;;;5032713;28;20067;-72
2022/02/03 10:17:50;;;;;;;3.67;1.60;;;;;;;;;;5008618;28;20405;-72
2022/02/03 10:20:19;;;;;;;5.28;1.75;;;;;;;;;;5038201;28;20106;-72
2022/02/03 10:22:48;;;;;;;4.13;1.90;;;;;;;;;;5029402;28;20029;-72
2022/02/03 10:25:21;;;;;;;4.20;1.90;;;;;;;;;;5012881;28;20037;-72
2022/02/03 10:27:57;;;;;;;3.10;1.45;;;;;;;;;;5014182;28;20036;-72
2022/02/03 10:30:26;;;;;;;4.40;1.88;;;;;;;;;;5036625;28;20507;-73
2022/02/03 10:32:53;;;;;;;3.80;1.50;;;;;;;;;;5020742;28;20037;-71
2022/02/03 10:35:40;;;;;;;5.03;1.85;;;;;;;;;;5037978;28;20032;-71
2022/02/03 11:05:13;;;;;;;3.85;1.52;;;;;;;;;;5006962;28;20044;-72
2022/02/03 11:10:33;;;;;;;3.22;1.60;;;;;;;;;;5025960;28;20033;-71
2022/02/03 11:12:55;;;;;;;5.20;2.20;;;;;;;;;;5018697;28;20158;-72
2022/02/03 11:15:24;;;;;;;4.10;1.70;;;;;;;;;;5019029;28;20033;-72
2022/02/03 11:17:50;;;;;;;7.15;1.80;;;;;;;;;;5010116;28;20492;-70
2022/02/03 11:20:17;;;;;;;4.13;1.50;;;;;;;;;;5009757;28;20685;-71
2022/02/03 11:22:54;;;;;;;4.68;1.70;;;;;;;;;;5017783;28;20029;-71
2022/02/03 11:25:39;;;;;;;4.65;1.85;;;;;;;;;;5023682;28;20044;-71
2022/02/03 11:44:25;;;;;;;2.97;1.35;;;;;;;;;;5019678;28;20028;-70
2022/02/03 11:47:29;;;;;;;5.20;1.70;;;;;;;;;;5026327;28;20049;-71
2022/02/03 12:17:55;;;;;;;3.20;1.70;;;;;;;;;;5020155;28;20107;-71
2022/02/03 12:20:47;;;;;;;5.40;1.10;;;;;;;;;;4992977;28;20030;-71
2022/02/03 12:23:48;;;;;;;4.70;1.40;;;;;;;;;;5004168;28;20029;-71
2022/02/03 12:26:42;;;;;;;2.33;1.07;;;;;;;;;;5019494;28;20073;-71
2022/02/03 12:29:14;;;;;;;2.88;1.50;;;;;;;;;;5016924;28;20026;-71
2022/02/03 12:38:22;;;;;;;3.63;1.17;;;;;;;;;;4989585;28;20088;-71
2022/02/03 12:40:17;;;;;;;3.63;1.52;;;;;;;;;;4987909;28;20042;-71
2022/02/03 12:42:54;;;;;;;3.13;1.38;;;;;;;;;;5004181;28;20026;-71
2022/02/03 12:45:26;;;;;;;3.30;1.05;;;;;;;;;;4996904;28;20037;-70
2022/02/03 12:47:59;;;;;;;3.28;1.77;;;;;;;;;;4991658;28;20035;-71
2022/02/03 12:50:27;;;;;;;2.22;1.20;;;;;;;;;;5002731;28;20118;-71
2022/02/03 12:52:55;;;;;;;4.15;1.40;;;;;;;;;;4977903;28;20026;-71
2022/02/03 12:55:24;;;;;;;2.53;1.25;;;;;;;;;;4991078;28;20041;-71
2022/02/03 12:57:51;;;;;;;2.45;1.45;;;;;;;;;;5011147;28;20654;-71
2022/02/03 13:00:28;;;;;;;1.75;1.20;;;;;;;;;;4987415;28;20037;-71
2022/02/03 13:03:03;;;;;;;3.95;1.65;;;;;;;;;;4986746;28;20030;-71
2022/02/03 13:05:33;;;;;;;3.38;1.60;;;;;;;;;;4999303;28;20033;-71
2022/02/03 13:08:00;;;;;;;3.30;1.63;;;;;;;;;;5001364;28;20121;-71
2022/02/03 13:10:28;;;;;;;9.63;1.85;;;;;;;;;;4991804;28;20021;-72
2022/02/03 13:13:05;;;;;;;3.85;1.50;;;;;;;;;;5000058;28;20034;-72
2022/02/03 13:15:35;;;;;;;5.65;1.92;;;;;;;;;;4989785;28;20091;-73
2022/02/03 13:18:05;;;;;;;4.68;1.42;;;;;;;;;;4992091;28;20033;-71
2022/02/03 13:20:44;;;;;;;2.83;1.40;;;;;;;;;;5003850;28;20022;-72
2022/02/03 13:23:15;;;;;;;2.90;1.23;;;;;;;;;;4991443;28;20034;-73
2022/02/03 13:34:14;;;;;;;4.32;1.23;;;;;;;;;;5000282;28;20041;-71
2022/02/03 13:36:49;;;;;;;4.85;1.60;;;;;;;;;;5021748;28;20022;-72
2022/02/03 13:39:27;;;;;;;1.90;1.40;;;;;;;;;;5013115;28;20036;-73
2022/02/03 13:42:03;;;;;;;4.07;1.55;;;;;;;;;;5009128;28;20030;-72
2022/02/03 13:44:30;;;;;;;4.10;1.10;;;;;;;;;;5012078;28;20044;-72
2022/02/03 13:46:57;;;;;;;5.72;1.58;;;;;;;;;;5013100;28;20044;-72
2022/02/03 13:49:26;;;;;;;4.82;1.80;;;;;;;;;;5012352;28;20028;-72
2022/02/03 13:52:06;;;;;;;4.72;1.92;;;;;;;;;;5007861;28;20029;-71
2022/02/03 14:22:51;;;;;;;5.37;1.57;;;;;;;;;;5019872;28;20087;-70
2022/02/03 14:27:55;;;;;;;3.63;1.33;;;;;;;;;;5017471;28;20508;-70
2022/02/03 14:30:23;;;;;;;5.28;1.58;;;;;;;;;;5025176;28;20090;-69
2022/02/03 14:32:55;;;;;;;3.75;1.45;;;;;;;;;;5022262;28;20591;-70
2022/02/03 14:35:22;;;;;;;5.82;1.73;;;;;;;;;;5020893;28;20056;-70
2022/02/03 14:38:03;;;;;;;6.65;2.00;;;;;;;;;;5029391;28;20030;-71
2022/02/03 14:42:58;;;;;;;7.35;1.98;;;;;;;;;;5020481;28;20034;-70
2022/02/03 14:45:24;;;;;;;4.68;1.50;;;;;;;;;;5011036;28;20037;-70
2022/02/03 14:47:50;;;;;;;4.03;1.70;;;;;;;;;;5013157;28;20061;-69
2022/02/03 14:50:18;;;;;;;6.32;1.50;;;;;;;;;;5002838;28;20040;-70
2022/02/03 14:53:07;;;;;;;3.70;1.40;;;;;;;;;;5019998;28;20183;-70
2022/02/03 14:58:27;;;;;;;3.65;1.42;;;;;;;;;;5022220;28;20117;-69
2022/02/03 15:00:56;;;;;;;4.85;1.60;;;;;;;;;;5008851;28;20899;-70
2022/02/03 15:03:25;;;;;;;3.10;1.35;;;;;;;;;;5010786;28;20095;-70
2022/02/03 15:05:57;;;;;;;4.13;1.75;;;;;;;;;;5028234;28;20048;-70
2022/02/03 15:11:10;;;;;;;4.10;1.65;;;;;;;;;;5019958;28;20037;-70
2022/02/03 15:13:44;;;;;;;4.60;1.60;;;;;;;;;;5031280;28;20378;-70
2022/02/03 15:16:11;;;;;;;9.10;1.60;;;;;;;;;;5031808;28;20028;-70
2022/02/03 15:18:38;;;;;;;10.68;1.83;;;;;;;;;;5016140;28;20381;-71
2022/02/03 15:21:04;;;;;;;6.50;1.60;;;;;;;;;;5022494;28;20029;-70
2022/02/03 15:23:31;;;;;;;4.28;1.45;;;;;;;;;;5017323;28;20079;-70
2022/02/03 15:25:57;;;;;;;5.65;1.48;;;;;;;;;;5016178;28;20393;-71
2022/02/03 15:28:24;;;;;;;5.07;1.30;;;;;;;;;;5016846;28;20028;-70
2022/02/03 15:30:50;;;;;;;5.30;1.90;;;;;;;;;;5010510;28;20044;-70
2022/02/03 15:33:22;;;;;;;7.15;1.52;;;;;;;;;;5011784;28;20033;-70
2022/02/03 15:35:51;;;;;;;;;;;;;;;;;;5028093;28;20369;-71
2022/02/03 15:38:20;;;;;;;3.75;1.30;;;;;;;;;;5012669;28;19920;-70
2022/02/03 15:40:48;;;;;;;3.40;1.30;;;;;;;;;;5022218;28;20056;-70
2022/02/03 15:45:56;;;;;;;4.63;1.50;;;;;;;;;;5022990;28;20038;-70
2022/02/03 15:48:42;;;;;;;4.40;1.23;;;;;;;;;;5026603;28;20025;-71
2022/02/03 16:13:21;;;;;;;3.88;2.22;;;;;;;;;;5020778;28;20528;-70
2022/02/03 16:17:45;;;;;;;6.00;1.45;;;;;;;;;;5017890;28;20061;-70
2022/02/03 16:20:16;;;;;;;6.95;2.58;;;;;;;;;;5020050;28;20029;-70
2022/02/03 16:25:23;;;;;;;2.22;1.50;;;;;;;;;;5015440;28;20533;-70
2022/02/03 16:53:07;;;;;;;6.25;1.80;;;;;;;;;;4939393;28;20609;-70
2022/02/03 16:55:36;;;;;;;2.08;1.20;;;;;;;;;;4990643;28;20062;-70
2022/02/03 16:58:06;;;;;;;3.85;1.70;;;;;;;;;;5015198;28;20021;-70
2022/02/03 17:00:32;;;;;;;4.38;2.03;;;;;;;;;;5009348;28;20044;-70
2022/02/03 17:02:59;;;;;;;3.95;2.40;;;;;;;;;;5007351;28;20417;-71
2022/02/03 17:05:26;;;;;;;8.52;3.05;;;;;;;;;;5005973;28;20473;-70
2022/02/03 17:07:52;;;;;;;7.25;4.00;;;;;;;;;;5016722;28;20036;-70
2022/02/03 17:10:18;;;;;;;7.20;3.50;;;;;;;;;;5014571;28;20032;-71
2022/02/03 17:12:44;;;;;;;8.13;4.13;;;;;;;;;;5013603;28;20046;-70
2022/02/03 17:15:11;;;;;;;5.90;3.60;;;;;;;;;;5011345;28;20021;-70
2022/02/03 17:17:37;;;;;;;13.43;3.30;;;;;;;;;;5015849;28;20096;-70
2022/02/03 17:20:04;;;;;;;4.07;2.25;;;;;;;;;;5015443;28;20031;-70
2022/02/03 17:22:38;;;;;;;4.40;1.92;;;;;;;;;;5019608;28;20484;-70
2022/02/03 17:27:51;;;;;;;4.53;2.90;;;;;;;;;;5013076;28;20041;-71
2022/02/03 17:30:31;;;;;;;5.40;3.28;;;;;;;;;;5012559;28;20811;-71
2022/02/03 17:52:45;;;;;;;8.13;2.88;;;;;;;;;;5015008;28;20095;-73
2022/02/03 18:11:04;;;;;;;4.00;1.73;;;;;;;;;;4991576;28;20034;-72
2022/02/03 18:30:35;;;;;;;3.85;1.75;;;;;;;;;;5004623;28;20041;-72
2022/02/03 18:52:04;;;;;;;;;;;;;;;;;;5015206;28;20041;-74
2022/02/03 18:57:52;;;;;;;4.78;2.03;;;;;;;;;;4961079;28;20613;-72
2022/02/03 19:00:36;;;;;;;3.38;2.15;;;;;;;;;;4962833;28;20646;-75
2022/02/03 19:21:07;;;;;;;2.92;1.00;;;;;;;;;;5019564;28;20554;-73
2022/02/03 19:28:43;;;;;;;3.25;0.88;;;;;;;;;;5010049;28;20037;-73
2022/02/03 19:59:34;;;;;;;2.83;0.90;;;;;;;;;;5007415;28;20040;-73
2022/02/03 20:06:17;;;;;;;4.15;1.20;;;;;;;;;;5018540;28;20061;-72
2022/02/03 20:11:11;;;;;;;4.70;1.65;;;;;;;;;;5019316;28;20401;-72
2022/02/03 20:13:37;;;;;;;3.05;1.65;;;;;;;;;;5030753;28;20030;-73
2022/02/03 20:16:05;;;;;;;6.95;1.90;;;;;;;;;;5018354;28;20021;-73
2022/02/03 20:18:32;;;;;;;4.55;1.70;;;;;;;;;;5019964;28;20052;-73
2022/02/03 20:20:58;;;;;;;3.40;1.33;;;;;;;;;;5019563;28;20025;-73
2022/02/03 20:23:25;;;;;;;3.08;1.40;;;;;;;;;;5036574;28;20043;-72
2022/02/03 20:25:58;;;;;;;2.25;0.95;;;;;;;;;;5022456;28;20451;-74
2022/02/03 20:28:25;;;;;;;3.97;1.08;;;;;;;;;;5018526;28;20036;-73
2022/02/03 20:30:51;;;;;;;6.75;2.30;;;;;;;;;;5007012;28;20034;-73
2022/02/03 20:33:17;;;;;;;8.77;4.07;;;;;;;;;;5010618;28;20160;-73
2022/02/03 20:35:44;;;;;;;6.50;2.00;;;;;;;;;;5035924;28;20040;-73
2022/02/03 20:38:11;;;;;;;3.10;1.35;;;;;;;;;;5020057;28;20013;-73
2022/02/03 20:40:37;;;;;;;2.28;0.88;;;;;;;;;;5017389;28;20021;-73
2022/02/03 20:43:03;;;;;;;4.45;0.98;;;;;;;;;;5018433;28;20057;-73
2022/02/03 20:45:29;;;;;;;1.30;0.90;;;;;;;;;;5009684;28;20029;-72
2022/02/03 20:47:56;;;;;;;2.13;1.30;;;;;;;;;;5017967;28;20095;-73
2022/02/03 20:50:22;;;;;;;3.00;1.20;;;;;;;;;;5019615;28;20091;-73
2022/02/03 20:52:48;;;;;;;3.28;0.70;;;;;;;;;;5018792;28;20037;-72
2022/02/03 20:55:15;;;;;;;1.35;0.80;;;;;;;;;;5017798;28;20040;-72
2022/02/03 20:57:41;;;;;;;1.75;0.95;;;;;;;;;;5019403;28;20026;-73
2022/02/03 21:00:17;;;;;;;1.88;0.80;;;;;;;;;;5018633;28;20029;-73
2022/02/03 21:03:04;;;;;;;1.20;0.80;;;;;;;;;;5019276;28;20623;-73
2022/02/03 21:05:30;;;;;;;0.80;0.60;;;;;;;;;;5017496;28;20111;-72
2022/02/03 21:07:57;;;;;;;1.30;0.80;;;;;;;;;;5019111;28;20029;-72
2022/02/03 21:10:28;;;;;;;1.52;0.98;;;;;;;;;;5009739;28;20674;-72
2022/02/03 21:12:55;;;;;;;2.10;1.27;;;;;;;;;;5019467;28;20052;-73
2022/02/03 21:15:27;;;;;;;2.25;1.08;;;;;;;;;;5017645;28;20464;-73
2022/02/03 21:17:56;;;;;;;3.13;1.80;;;;;;;;;;5019268;28;20602;-73
2022/02/03 21:20:23;;;;;;;1.95;1.17;;;;;;;;;;5018774;28;20040;-72
2022/02/03 21:22:53;;;;;;;2.28;1.23;;;;;;;;;;5019355;28;20014;-72
2022/02/03 21:25:24;;;;;;;2.67;1.00;;;;;;;;;;5017926;28;20195;-73
2022/02/03 21:27:53;;;;;;;3.60;0.90;;;;;;;;;;5005545;28;20435;-72
2022/02/03 21:30:20;;;;;;;0.95;0.70;;;;;;;;;;5010367;28;20058;-73
2022/02/03 21:32:48;;;;;;;2.15;0.80;;;;;;;;;;5039081;28;20086;-73
2022/02/03 21:35:15;;;;;;;3.22;1.05;;;;;;;;;;5027501;28;20120;-72
2022/02/03 21:37:42;;;;;;;1.13;0.70;;;;;;;;;;5019484;28;20021;-73
2022/02/03 21:40:08;;;;;;;3.53;1.77;;;;;;;;;;5008524;28;20022;-73
2022/02/03 21:42:35;;;;;;;2.97;1.20;;;;;;;;;;5005540;28;20025;-72
2022/02/03 21:45:01;;;;;;;5.13;1.60;;;;;;;;;;5016554;28;20052;-74
2022/02/03 21:47:27;;;;;;;0.88;0.70;;;;;;;;;;5012205;28;20108;-73
2022/02/03 21:49:54;;;;;;;1.80;0.70;;;;;;;;;;5018911;28;20492;-73
2022/02/03 21:52:22;;;;;;;1.77;0.90;;;;;;;;;;5017270;28;20069;-73
2022/02/03 21:54:49;;;;;;;2.05;0.80;;;;;;;;;;5019210;28;20021;-73
2022/02/03 21:57:15;;;;;;;1.30;0.85;;;;;;;;;;5022387;28;20025;-73
2022/02/03 21:59:42;;;;;;;1.08;0.75;;;;;;;;;;5022340;28;20026;-73
2022/02/03 22:02:09;;;;;;;1.42;0.60;;;;;;;;;;5021417;28;20377;-72
2022/02/03 22:04:36;;;;;;;1.40;0.80;;;;;;;;;;5022173;28;20028;-73
2022/02/03 22:07:02;;;;;;;3.33;0.80;;;;;;;;;;5021791;28;20409;-74
2022/02/03 22:09:28;;;;;;;0.95;0.70;;;;;;;;;;5021456;28;20029;-73
2022/02/03 22:11:54;;;;;;;2.95;0.60;;;;;;;;;;5018422;28;20047;-72
2022/02/03 22:14:20;;;;;;;2.65;0.80;;;;;;;;;;5022010;28;20115;-72
2022/02/03 22:16:48;;;;;;;1.05;0.68;;;;;;;;;;5021842;28;20136;-72
2022/02/03 22:19:14;;;;;;;0.60;0.50;;;;;;;;;;5022201;28;20083;-72
2022/02/03 22:21:53;;;;;;;1.00;0.70;;;;;;;;;;5021292;28;20347;-72
2022/02/03 22:27:57;;;;;;;2.17;0.77;;;;;;;;;;4985390;28;20046;-74
2022/02/03 22:38:58;;;;;;;3.22;1.60;;;;;;;;;;5012855;28;20523;-73
2022/02/03 22:47:23;;;;;;;2.10;1.10;;;;;;;;;;4922486;29;20043;-73
2022/02/03 22:49:49;;;;;;;2.30;1.15;;;;;;;;;;4982501;28;20056;-72
2022/02/03 22:52:17;;;;;;;2.70;1.10;;;;;;;;;;5021541;28;20025;-72
2022/02/03 22:54:43;;;;;;;2.78;1.00;;;;;;;;;;5020307;28;20374;-73
2022/02/03 22:57:09;;;;;;;1.30;0.85;;;;;;;;;;5021485;28;20017;-73
2022/02/03 23:02:23;;;;;;;1.25;0.80;;;;;;;;;;5019693;28;20095;-73
2022/02/03 23:04:49;;;;;;;1.65;0.50;;;;;;;;;;5020596;28;20489;-73
2022/02/03 23:07:20;;;;;;;0.80;0.50;;;;;;;;;;5020270;28;20505;-73
2022/02/03 23:12:21;;;;;;;0.57;0.50;;;;;;;;;;5020823;28;20038;-73
2022/02/03 23:22:28;;;;;;;1.33;0.57;;;;;;;;;;5020160;28;20030;-73
2022/02/03 23:24:55;;;;;;;2.90;0.50;;;;;;;;;;5017895;28;20025;-73
2022/02/03 23:30:00;;;;;;;0.95;0.50;;;;;;;;;;5019286;28;20640;-72
2022/02/03 23:32:28;;;;;;;1.02;0.60;;;;;;;;;;5021072;28;20066;-72
2022/02/03 23:35:17;;;;;;;3.92;0.93;;;;;;;;;;5029255;28;20060;-73
2022/02/03 23:37:47;;;;;;;1.20;0.68;;;;;;;;;;5019318;28;20441;-72
2022/02/03 23:43:38;;;;;;;1.15;0.65;;;;;;;;;;5041347;28;20237;-72
